createdAt,value
2022-07-29T00:01:53.341Z,18.40
2022-07-29T00:04:21.498Z,18.40
2022-07-29T00:06:49.242Z,18.40
2022-07-29T00:09:16.652Z,18.40
2022-07-29T00:11:44.308Z,18.40
2022-07-29T00:14:11.742Z,18.40
2022-07-29T00:16:39.221Z,18.30
2022-07-29T00:19:07.896Z,18.40
2022-07-29T00:21:35.411Z,18.40
2022-07-29T00:24:02.775Z,18.40
2022-07-29T00:26:32.734Z,18.40
2022-07-29T00:29:31.182Z,18.40
2022-07-29T00:31:49.055Z,18.50
2022-07-29T00:34:35.141Z,18.50
2022-07-29T00:37:02.574Z,18.50
2022-07-29T00:39:30.595Z,18.40
2022-07-29T00:41:57.883Z,18.50
2022-07-29T00:44:25.162Z,18.50
2022-07-29T00:46:52.539Z,18.40
2022-07-29T00:49:19.999Z,18.40
2022-07-29T00:51:48.747Z,18.40
2022-07-29T00:54:16.347Z,18.20
2022-07-29T00:56:44.261Z,18.40
2022-07-29T00:59:11.583Z,18.40
2022-07-29T01:01:38.900Z,18.40
2022-07-29T01:04:07.690Z,18.40
2022-07-29T01:06:35.774Z,18.30
2022-07-29T01:09:04.305Z,18.30
2022-07-29T01:11:32.082Z,18.10
2022-07-29T01:13:59.938Z,18.30
2022-07-29T01:16:33.066Z,18.30
2022-07-29T01:19:11.591Z,18.30
2022-07-29T01:21:53.250Z,18.40
2022-07-29T01:24:29.635Z,18.30
2022-07-29T01:27:04.530Z,18.30
2022-07-29T01:29:40.396Z,18.30
2022-07-29T01:32:28.293Z,18.30
2022-07-29T01:35:15.134Z,18.30
2022-07-29T01:37:51.281Z,18.30
2022-07-29T01:40:40.843Z,18.30
2022-07-29T01:43:13.789Z,18.30
2022-07-29T01:46:05.315Z,18.30
2022-07-29T01:48:36.639Z,18.20
2022-07-29T01:51:11.077Z,18.20
2022-07-29T01:53:54.942Z,18.20
2022-07-29T01:56:25.208Z,18.20
2022-07-29T01:58:54.277Z,18.20
2022-07-29T02:01:25.214Z,18.10
2022-07-29T02:03:55.864Z,18.10
2022-07-29T02:06:24.272Z,18.10
2022-07-29T02:08:53.501Z,18.00
2022-07-29T02:11:20.951Z,18.00
2022-07-29T02:13:49.847Z,18.00
2022-07-29T02:16:21.818Z,18.00
2022-07-29T02:18:53.338Z,17.90
2022-07-29T02:21:25.008Z,17.90
2022-07-29T02:23:54.095Z,17.70
2022-07-29T02:26:23.994Z,17.90
2022-07-29T02:28:54.713Z,17.80
2022-07-29T02:31:26.640Z,17.80
2022-07-29T02:33:55.245Z,17.80
2022-07-29T02:36:24.607Z,17.70
2022-07-29T02:38:53.051Z,17.70
2022-07-29T02:41:27.226Z,17.60
2022-07-29T02:44:11.777Z,17.60
2022-07-29T02:46:46.351Z,17.50
2022-07-29T02:49:24.684Z,17.40
2022-07-29T02:52:24.261Z,17.40
2022-07-29T02:55:02.292Z,17.40
2022-07-29T02:57:54.494Z,17.30
2022-07-29T03:00:28.255Z,17.20
2022-07-29T03:02:59.534Z,17.20
2022-07-29T03:05:27.822Z,17.10
2022-07-29T03:08:04.366Z,17.10
2022-07-29T03:10:32.767Z,17.10
2022-07-29T03:13:00.816Z,17.10
2022-07-29T03:15:28.716Z,17.30
2022-07-29T03:17:56.701Z,17.00
2022-07-29T03:20:24.575Z,17.00
2022-07-29T03:22:52.171Z,16.90
2022-07-29T03:25:21.236Z,16.90
2022-07-29T03:27:49.391Z,16.80
2022-07-29T03:30:21.639Z,16.90
2022-07-29T03:32:52.246Z,16.90
2022-07-29T03:35:20.888Z,16.80
2022-07-29T03:37:48.253Z,16.90
2022-07-29T03:40:24.423Z,16.70
2022-07-29T03:42:54.175Z,16.80
2022-07-29T03:45:22.384Z,16.70
2022-07-29T03:48:00.724Z,16.90
2022-07-29T03:50:31.535Z,16.70
2022-07-29T03:53:00.701Z,16.70
2022-07-29T03:55:32.650Z,16.70
2022-07-29T03:58:03.028Z,16.70
2022-07-29T04:00:31.964Z,16.80
2022-07-29T04:02:59.465Z,16.70
2022-07-29T04:05:26.839Z,16.60
2022-07-29T04:07:54.112Z,16.60
2022-07-29T04:10:29.387Z,16.50
2022-07-29T04:13:00.338Z,16.50
2022-07-29T04:15:31.238Z,16.50
2022-07-29T04:18:00.353Z,16.40
2022-07-29T04:20:27.873Z,16.40
2022-07-29T04:22:55.294Z,16.60
2022-07-29T04:25:22.631Z,16.60
2022-07-29T04:28:02.018Z,16.40
2022-07-29T04:30:30.856Z,16.60
2022-07-29T04:32:58.445Z,16.50
2022-07-29T04:35:25.819Z,16.50
2022-07-29T04:37:53.190Z,16.50
2022-07-29T04:40:20.869Z,16.50
2022-07-29T04:42:48.229Z,16.50
2022-07-29T04:45:22.621Z,16.60
2022-07-29T04:47:50.730Z,16.60
2022-07-29T04:50:18.165Z,16.60
2022-07-29T04:52:46.707Z,16.60
2022-07-29T04:55:14.083Z,16.60
2022-07-29T04:57:41.476Z,16.50
2022-07-29T05:00:09.792Z,16.50
2022-07-29T05:02:37.226Z,16.60
2022-07-29T05:05:05.012Z,16.60
2022-07-29T05:10:00.387Z,16.60
2022-07-29T05:12:28.646Z,16.60
2022-07-29T05:14:56.068Z,16.60
2022-07-29T05:17:23.361Z,16.60
2022-07-29T05:19:52.243Z,16.60
2022-07-29T05:22:20.567Z,16.70
2022-07-29T05:24:48.269Z,16.70
2022-07-29T05:27:15.861Z,16.70
2022-07-29T05:29:45.569Z,16.80
2022-07-29T05:32:14.096Z,16.90
2022-07-29T05:34:51.024Z,17.00
2022-07-29T05:37:22.102Z,17.10
2022-07-29T05:39:56.348Z,17.40
2022-07-29T05:42:26.034Z,17.30
2022-07-29T05:44:53.887Z,17.50
2022-07-29T05:47:22.216Z,17.60
2022-07-29T05:49:49.637Z,17.60
2022-07-29T05:52:17.091Z,17.70
2022-07-29T05:54:44.380Z,18.00
2022-07-29T05:57:18.410Z,17.90
2022-07-29T05:59:46.120Z,18.00
2022-07-29T06:02:13.586Z,18.10
2022-07-29T06:04:40.969Z,18.20
2022-07-29T06:07:08.410Z,18.30
2022-07-29T06:09:36.426Z,18.40
2022-07-29T06:12:04.297Z,18.40
2022-07-29T06:14:31.595Z,18.50
2022-07-29T06:16:58.871Z,18.60
2022-07-29T06:19:26.805Z,18.60
2022-07-29T06:21:54.403Z,18.70
2022-07-29T06:24:21.686Z,18.80
2022-07-29T06:26:49.258Z,18.90
2022-07-29T06:29:16.774Z,19.00
2022-07-29T06:31:44.091Z,19.10
2022-07-29T06:34:11.514Z,19.20
2022-07-29T06:36:39.602Z,19.20
2022-07-29T06:39:08.890Z,19.20
2022-07-29T06:41:36.560Z,19.30
2022-07-29T06:44:10.437Z,19.30
2022-07-29T06:46:37.894Z,19.30
2022-07-29T06:49:05.770Z,19.40
2022-07-29T06:51:33.224Z,19.20
2022-07-29T06:54:02.607Z,19.40
2022-07-29T06:56:38.421Z,19.60
2022-07-29T06:59:09.348Z,19.60
2022-07-29T07:01:38.502Z,19.70
2022-07-29T07:04:06.631Z,19.80
2022-07-29T07:06:33.944Z,19.90
2022-07-29T07:09:01.366Z,20.10
2022-07-29T07:11:28.744Z,20.20
2022-07-29T07:14:00.676Z,20.20
2022-07-29T07:16:30.331Z,20.30
2022-07-29T07:18:57.745Z,20.30
2022-07-29T07:21:25.241Z,20.20
2022-07-29T07:23:52.661Z,20.20
2022-07-29T07:26:20.138Z,20.10
2022-07-29T07:28:47.479Z,20.00
2022-07-29T07:31:15.254Z,20.00
2022-07-29T07:33:42.577Z,19.90
2022-07-29T07:36:09.975Z,19.90
2022-07-29T07:38:37.415Z,20.00
2022-07-29T07:41:04.977Z,20.00
2022-07-29T07:43:32.374Z,20.10
2022-07-29T07:45:59.814Z,20.10
2022-07-29T07:48:27.132Z,20.20
2022-07-29T07:50:54.435Z,20.30
2022-07-29T07:53:23.075Z,20.40
2022-07-29T07:58:37.761Z,20.50
2022-07-29T08:01:05.110Z,20.50
2022-07-29T08:03:33.697Z,20.60
2022-07-29T08:06:01.073Z,20.70
2022-07-29T08:08:28.370Z,20.70
2022-07-29T08:10:58.502Z,20.80
2022-07-29T08:13:31.330Z,20.70
2022-07-29T08:16:11.855Z,20.80
2022-07-29T08:18:41.354Z,20.80
2022-07-29T08:21:08.947Z,20.70
2022-07-29T08:23:46.850Z,20.80
2022-07-29T08:26:16.637Z,20.90
2022-07-29T08:28:46.790Z,20.90
2022-07-29T08:31:14.962Z,20.90
2022-07-29T08:33:42.919Z,20.80
2022-07-29T08:36:10.617Z,20.90
2022-07-29T08:38:37.961Z,20.90
2022-07-29T08:41:05.548Z,20.90
2022-07-29T08:43:34.842Z,20.90
2022-07-29T08:46:02.393Z,21.00
2022-07-29T08:48:30.236Z,20.90
2022-07-29T08:50:58.609Z,21.10
2022-07-29T08:53:29.095Z,21.20
2022-07-29T08:55:57.881Z,21.20
2022-07-29T08:58:26.371Z,21.30
2022-07-29T09:00:56.053Z,21.30
2022-07-29T09:03:31.853Z,21.40
2022-07-29T09:06:03.417Z,21.50
2022-07-29T09:08:33.069Z,21.50
2022-07-29T09:11:03.971Z,21.60
2022-07-29T09:13:33.185Z,21.40
2022-07-29T09:16:03.410Z,21.60
2022-07-29T09:18:40.817Z,21.70
2022-07-29T09:21:28.685Z,21.80
2022-07-29T09:24:02.003Z,21.90
2022-07-29T09:26:33.121Z,21.90
2022-07-29T09:29:00.700Z,22.00
2022-07-29T09:31:39.521Z,22.00
2022-07-29T09:34:09.221Z,22.10
2022-07-29T09:36:45.023Z,22.10
2022-07-29T09:39:13.208Z,22.20
2022-07-29T09:41:48.738Z,22.30
2022-07-29T09:44:16.698Z,22.40
2022-07-29T09:47:07.915Z,22.50
2022-07-29T09:49:36.919Z,22.60
2022-07-29T09:52:12.098Z,22.70
2022-07-29T09:54:39.557Z,22.80
2022-07-29T09:57:22.146Z,22.80
2022-07-29T10:00:14.531Z,22.80
2022-07-29T10:02:44.991Z,22.90
2022-07-29T10:05:36.173Z,23.00
2022-07-29T10:08:04.538Z,23.10
2022-07-29T10:10:34.752Z,23.20
2022-07-29T10:13:08.946Z,23.20
2022-07-29T10:15:44.133Z,23.30
2022-07-29T10:18:13.288Z,23.40
2022-07-29T10:20:41.291Z,23.40
2022-07-29T10:23:09.801Z,23.40
2022-07-29T10:25:37.099Z,23.40
2022-07-29T10:28:06.290Z,23.50
2022-07-29T10:30:34.032Z,23.60
2022-07-29T10:33:22.489Z,23.70
2022-07-29T10:36:18.986Z,23.90
2022-07-29T10:38:50.789Z,24.00
2022-07-29T10:41:49.629Z,24.20
2022-07-29T10:44:23.714Z,24.30
2022-07-29T10:46:53.001Z,24.40
2022-07-29T10:52:12.847Z,24.60
2022-07-29T10:54:52.484Z,24.70
2022-07-29T10:57:54.448Z,24.70
2022-07-29T11:03:04.900Z,24.90
2022-07-29T11:05:59.563Z,25.10
2022-07-29T11:08:28.331Z,25.20
2022-07-29T11:11:22.197Z,25.20
2022-07-29T11:13:52.342Z,25.60
2022-07-29T11:16:23.124Z,25.50
2022-07-29T11:19:11.680Z,25.60
2022-07-29T11:21:55.145Z,25.70
2022-07-29T11:24:37.260Z,25.80
2022-07-29T11:27:23.313Z,25.80
2022-07-29T11:30:04.622Z,25.90
2022-07-29T11:32:40.894Z,26.00
2022-07-29T11:35:38.406Z,26.10
2022-07-29T11:38:28.347Z,26.20
2022-07-29T11:41:18.485Z,26.50
2022-07-29T11:43:56.820Z,26.80
2022-07-29T11:46:42.588Z,27.00
2022-07-29T11:49:11.541Z,27.20
2022-07-29T11:51:48.232Z,27.30
2022-07-29T11:54:57.775Z,27.40
2022-07-29T11:57:36.666Z,27.50
2022-07-29T12:00:12.342Z,27.50
2022-07-29T12:02:43.290Z,27.50
2022-07-29T12:05:11.988Z,27.60
2022-07-29T12:07:41.301Z,27.60
2022-07-29T12:10:19.881Z,27.60
2022-07-29T12:12:55.730Z,27.70
2022-07-29T12:15:24.990Z,27.70
2022-07-29T12:18:18.408Z,27.70
2022-07-29T12:20:46.556Z,27.70
2022-07-29T12:23:16.176Z,27.70
2022-07-29T12:25:45.126Z,27.80
2022-07-29T12:28:27.092Z,27.80
2022-07-29T12:30:55.359Z,27.90
2022-07-29T12:33:28.504Z,28.10
2022-07-29T12:36:06.901Z,28.10
2022-07-29T12:38:35.999Z,28.20
2022-07-29T12:41:04.847Z,28.40
2022-07-29T12:43:32.567Z,28.60
2022-07-29T12:46:13.611Z,28.80
2022-07-29T12:48:42.923Z,27.80
2022-07-29T12:51:12.723Z,29.00
2022-07-29T12:53:40.556Z,28.90
2022-07-29T12:56:40.684Z,29.00
2022-07-29T12:59:22.064Z,28.70
2022-07-29T13:01:52.126Z,28.50
2022-07-29T13:04:40.327Z,28.30
2022-07-29T13:07:12.745Z,28.30
2022-07-29T13:09:44.580Z,28.50
2022-07-29T13:12:13.782Z,28.80
2022-07-29T13:14:43.223Z,28.80
2022-07-29T13:17:14.825Z,28.80
2022-07-29T13:19:45.218Z,28.70
2022-07-29T13:22:25.643Z,28.40
2022-07-29T13:24:54.635Z,28.60
2022-07-29T13:27:27.061Z,28.80
2022-07-29T13:29:57.440Z,29.00
2022-07-29T13:32:28.329Z,29.20
2022-07-29T13:34:57.700Z,29.40
2022-07-29T13:37:25.151Z,29.70
2022-07-29T13:39:53.528Z,29.50
2022-07-29T13:42:21.155Z,29.50
2022-07-29T13:44:49.751Z,29.20
2022-07-29T13:47:17.377Z,29.10
2022-07-29T13:49:44.738Z,29.40
2022-07-29T13:52:12.162Z,29.30
2022-07-29T13:54:42.378Z,29.30
2022-07-29T13:57:11.897Z,29.70
2022-07-29T13:59:40.535Z,30.30
2022-07-29T14:02:08.290Z,31.00
2022-07-29T14:04:35.956Z,31.80
2022-07-29T14:07:07.790Z,31.80
2022-07-29T14:09:41.122Z,32.40
2022-07-29T14:12:09.738Z,32.70
2022-07-29T14:14:37.635Z,33.10
2022-07-29T14:17:07.390Z,33.40
2022-07-29T14:19:36.763Z,33.70
2022-07-29T14:22:05.690Z,34.00
2022-07-29T14:24:37.257Z,34.40
2022-07-29T14:27:08.902Z,34.80
2022-07-29T14:29:38.093Z,35.10
2022-07-29T14:32:11.166Z,34.80
2022-07-29T14:34:39.401Z,35.00
2022-07-29T14:37:07.597Z,35.10
2022-07-29T14:39:42.330Z,35.40
2022-07-29T14:42:11.613Z,35.60
2022-07-29T14:44:42.107Z,35.50
2022-07-29T14:47:09.819Z,35.00
2022-07-29T14:49:37.127Z,34.50
2022-07-29T14:52:04.882Z,33.80
2022-07-29T14:54:32.193Z,33.30
2022-07-29T14:57:00.471Z,32.70
2022-07-29T14:59:27.965Z,32.40
2022-07-29T15:01:55.549Z,31.90
2022-07-29T15:04:22.914Z,31.50
2022-07-29T15:06:50.336Z,31.20
2022-07-29T15:09:17.653Z,31.00
2022-07-29T15:11:45.242Z,30.70
2022-07-29T15:14:12.587Z,30.80
2022-07-29T15:16:43.855Z,31.10
2022-07-29T15:19:14.158Z,31.30
2022-07-29T15:21:48.575Z,31.40
2022-07-29T15:24:19.561Z,32.00
2022-07-29T15:26:47.680Z,32.80
2022-07-29T15:29:15.909Z,33.50
2022-07-29T15:31:44.476Z,34.20
2022-07-29T15:34:11.979Z,34.60
2022-07-29T15:36:54.779Z,35.00
2022-07-29T15:39:23.053Z,35.40
2022-07-29T15:41:51.039Z,35.50
2022-07-29T15:44:19.410Z,35.70
2022-07-29T15:47:04.655Z,35.70
2022-07-29T15:49:47.763Z,35.80
2022-07-29T15:52:25.910Z,35.30
2022-07-29T15:54:57.681Z,34.70
2022-07-29T15:57:25.696Z,33.80
2022-07-29T15:59:53.342Z,32.90
2022-07-29T16:02:20.640Z,32.10
2022-07-29T16:04:47.983Z,31.30
2022-07-29T16:07:15.914Z,30.70
2022-07-29T16:09:47.142Z,30.20
2022-07-29T16:12:18.381Z,29.90
2022-07-29T16:14:45.751Z,29.60
2022-07-29T16:17:14.800Z,29.40
2022-07-29T16:19:43.393Z,29.20
2022-07-29T16:22:11.390Z,29.10
2022-07-29T16:24:39.007Z,29.00
2022-07-29T16:27:06.633Z,28.80
2022-07-29T16:29:34.248Z,28.80
2022-07-29T16:32:01.870Z,28.90
2022-07-29T16:34:29.638Z,30.10
2022-07-29T16:36:56.975Z,29.50
2022-07-29T16:39:24.245Z,30.00
2022-07-29T16:41:51.575Z,30.40
2022-07-29T16:44:18.944Z,30.70
2022-07-29T16:46:46.233Z,30.90
2022-07-29T16:49:19.134Z,31.00
2022-07-29T16:51:47.892Z,31.00
2022-07-29T16:54:15.494Z,31.10
2022-07-29T16:56:42.851Z,31.00
2022-07-29T16:59:10.218Z,30.90
2022-07-29T17:01:37.623Z,30.40
2022-07-29T17:04:08.058Z,30.20
2022-07-29T17:06:39.647Z,30.10
2022-07-29T17:09:11.778Z,30.00
2022-07-29T17:11:52.911Z,29.80
2022-07-29T17:14:26.844Z,29.70
2022-07-29T17:17:01.309Z,29.50
2022-07-29T17:19:31.859Z,29.30
2022-07-29T17:22:06.999Z,29.10
2022-07-29T17:24:38.238Z,28.80
2022-07-29T17:27:06.213Z,28.60
2022-07-29T17:29:34.953Z,28.40
2022-07-29T17:32:02.438Z,28.10
2022-07-29T17:34:29.808Z,27.80
2022-07-29T17:36:57.464Z,27.60
2022-07-29T17:39:24.993Z,27.40
2022-07-29T17:41:52.320Z,27.30
2022-07-29T17:44:19.722Z,27.10
2022-07-29T17:46:47.324Z,27.00
2022-07-29T17:49:14.962Z,26.90
2022-07-29T17:51:42.314Z,26.80
2022-07-29T17:54:09.666Z,26.70
2022-07-29T17:56:37.035Z,26.70
2022-07-29T17:59:06.683Z,26.60
2022-07-29T18:01:34.417Z,26.50
2022-07-29T18:04:02.796Z,26.50
2022-07-29T18:06:30.162Z,26.50
2022-07-29T18:08:57.530Z,26.50
2022-07-29T18:11:24.854Z,26.50
2022-07-29T18:13:52.402Z,26.50
2022-07-29T18:16:19.973Z,26.50
2022-07-29T18:18:47.422Z,26.40
2022-07-29T18:21:14.859Z,26.30
2022-07-29T18:23:42.361Z,26.10
2022-07-29T18:26:09.885Z,26.00
2022-07-29T18:28:37.212Z,26.10
2022-07-29T18:31:07.276Z,25.80
2022-07-29T18:33:34.552Z,25.80
2022-07-29T18:36:10.666Z,25.80
2022-07-29T18:38:40.953Z,25.70
2022-07-29T18:41:08.255Z,25.70
2022-07-29T18:43:35.773Z,25.70
2022-07-29T18:46:05.278Z,25.60
2022-07-29T18:48:34.017Z,25.60
2022-07-29T18:51:01.655Z,25.50
2022-07-29T18:53:28.941Z,25.40
2022-07-29T18:56:00.311Z,25.30
2022-07-29T18:58:27.776Z,25.10
2022-07-29T19:00:55.035Z,24.40
2022-07-29T19:03:22.392Z,24.70
2022-07-29T19:05:49.915Z,24.60
2022-07-29T19:08:17.246Z,24.40
2022-07-29T19:10:44.597Z,24.30
2022-07-29T19:13:13.362Z,24.20
2022-07-29T19:15:40.959Z,24.20
2022-07-29T19:18:08.411Z,24.00
2022-07-29T19:20:35.946Z,23.90
2022-07-29T19:23:03.577Z,23.90
2022-07-29T19:25:31.156Z,23.80
2022-07-29T19:28:03.497Z,23.80
2022-07-29T19:30:31.008Z,23.80
2022-07-29T19:32:58.353Z,23.70
2022-07-29T19:35:28.310Z,23.70
2022-07-29T19:37:57.337Z,23.50
2022-07-29T19:40:26.052Z,23.50
2022-07-29T19:42:53.907Z,23.40
2022-07-29T19:45:23.033Z,23.40
2022-07-29T19:47:50.471Z,23.30
2022-07-29T19:50:18.096Z,23.30
2022-07-29T19:52:47.056Z,23.20
2022-07-29T19:55:15.613Z,23.10
2022-07-29T19:57:43.326Z,23.10
2022-07-29T20:00:12.178Z,22.90
2022-07-29T20:02:41.548Z,22.80
2022-07-29T20:05:10.110Z,22.80
2022-07-29T20:07:38.738Z,22.70
2022-07-29T20:10:07.725Z,22.60
2022-07-29T20:12:35.849Z,22.60
2022-07-29T20:15:04.723Z,22.50
2022-07-29T20:17:32.063Z,22.40
2022-07-29T20:20:08.576Z,22.40
2022-07-29T20:22:36.745Z,22.30
2022-07-29T20:25:05.859Z,22.30
2022-07-29T20:27:36.061Z,22.30
2022-07-29T20:30:03.792Z,22.30
2022-07-29T20:32:31.059Z,22.20
2022-07-29T20:34:58.329Z,22.10
2022-07-29T20:37:26.164Z,22.10
2022-07-29T20:39:53.437Z,22.00
2022-07-29T20:42:20.803Z,22.00
2022-07-29T20:44:50.643Z,21.90
2022-07-29T20:47:17.894Z,21.90
2022-07-29T20:49:45.180Z,21.80
2022-07-29T20:52:12.693Z,21.80
2022-07-29T20:54:39.962Z,21.80
2022-07-29T20:57:07.286Z,21.80
2022-07-29T20:59:34.743Z,21.70
2022-07-29T21:02:02.114Z,21.70
2022-07-29T21:04:30.921Z,21.70
2022-07-29T21:07:00.061Z,21.70
2022-07-29T21:09:28.353Z,21.70
2022-07-29T21:11:55.734Z,21.70
2022-07-29T21:14:43.269Z,21.60
2022-07-29T21:17:10.651Z,21.50
2022-07-29T21:19:37.973Z,21.50
2022-07-29T21:22:05.457Z,21.50
2022-07-29T21:24:32.770Z,21.50
2022-07-29T21:27:21.062Z,21.40
2022-07-29T21:29:49.237Z,21.40
2022-07-29T21:34:57.405Z,21.30
2022-07-29T21:37:25.049Z,21.30
2022-07-29T21:39:52.598Z,21.30
2022-07-29T21:42:19.898Z,21.30
2022-07-29T21:44:47.271Z,21.30
2022-07-29T21:47:14.541Z,21.20
2022-07-29T21:49:41.839Z,21.20
2022-07-29T21:52:09.175Z,21.20
2022-07-29T21:54:36.504Z,21.20
2022-07-29T21:57:04.554Z,21.20
2022-07-29T21:59:32.133Z,21.20
2022-07-29T22:02:01.015Z,21.20
2022-07-29T22:04:29.640Z,21.10
2022-07-29T22:06:58.393Z,21.20
2022-07-29T22:09:25.873Z,21.20
2022-07-29T22:11:53.369Z,21.10
2022-07-29T22:14:21.021Z,21.10
2022-07-29T22:16:48.843Z,21.00
2022-07-29T22:19:16.362Z,20.90
2022-07-29T22:21:43.710Z,21.00
2022-07-29T22:24:11.249Z,20.90
2022-07-29T22:26:38.648Z,20.80
2022-07-29T22:29:06.511Z,20.80
2022-07-29T22:31:34.023Z,20.70
2022-07-29T22:34:01.367Z,20.70
2022-07-29T22:36:28.668Z,20.60
2022-07-29T22:38:56.009Z,20.60
2022-07-29T22:41:23.298Z,20.50
2022-07-29T22:43:50.668Z,20.50
2022-07-29T22:46:18.052Z,20.50
2022-07-29T22:48:45.453Z,20.50
2022-07-29T22:51:12.807Z,20.50
2022-07-29T22:53:40.207Z,20.40
2022-07-29T22:56:07.603Z,20.40
2022-07-29T22:58:35.085Z,20.40
2022-07-29T23:01:02.512Z,20.30
2022-07-29T23:03:29.976Z,20.30
2022-07-29T23:05:57.366Z,20.30
2022-07-29T23:08:24.660Z,20.30
2022-07-29T23:10:51.979Z,20.30
2022-07-29T23:13:19.252Z,20.20
2022-07-29T23:15:46.556Z,20.20
2022-07-29T23:18:14.154Z,20.20
2022-07-29T23:20:42.949Z,20.20
2022-07-29T23:23:10.275Z,20.20
2022-07-29T23:25:38.485Z,20.10
2022-07-29T23:28:05.909Z,20.10
2022-07-29T23:30:33.246Z,20.10
2022-07-29T23:33:01.038Z,20.10
2022-07-29T23:35:28.496Z,20.10
2022-07-29T23:37:55.884Z,20.10
2022-07-29T23:40:23.207Z,20.10
2022-07-29T23:42:50.572Z,20.00
2022-07-29T23:45:17.899Z,20.00
2022-07-29T23:47:45.275Z,19.90
2022-07-29T23:50:13.055Z,19.90
2022-07-29T23:52:41.131Z,19.90
2022-07-29T23:55:38.108Z,19.80
2022-07-29T23:57:56.529Z,19.80
